Time;durP1;ratioP1;P1;durP2;ratioP2;P2;SDS_P1;SDS_P2;PMS_P1;PMS_P2;Temp;Humidity;BMP_temperature;BMP_pressure;BME280_temperature;BME280_humidity;BME280_pressure;Samples;Min_cycle;Max_cycle;Signal;HPM_P1;HPM_P2
2023/04/28 06:01:22;;;;;;;;;;;;;;;;;;5559293;23;19928;-80
2023/04/28 06:03:47;;;;;;;;;;;;;;;;;;5014583;28;19925;-80
2023/04/28 06:06:12;;;;;;;;;;;;;;;;;;5013969;28;20059;-80
2023/04/28 06:08:37;;;;;;;;;;;;;;;;;;5014286;28;19921;-80
2023/04/28 06:11:03;;;;;;;;;;;;;;;;;;5013789;28;20402;-80
2023/04/28 06:13:28;;;;;;;;;;;;;;;;;;5013454;28;19925;-80
2023/04/28 06:15:53;;;;;;;;;;;;;;;;;;5013962;28;19921;-80
2023/04/28 06:18:19;;;;;;;;;;;;;;;;;;5013619;28;20049;-80
2023/04/28 06:20:44;;;;;;;;;;;;;;;;;;5013999;28;20304;-80
2023/04/28 06:23:09;;;;;;;;;;;;;;;;;;5013801;28;20278;-80
2023/04/28 06:25:35;;;;;;;;;;;;;;;;;;5013711;28;19928;-81
2023/04/28 06:28:01;;;;;;;;;;;;;;;;;;5013761;28;20016;-80
2023/04/28 06:30:26;;;;;;;;;;;;;;;;;;5013538;28;19929;-81
2023/04/28 06:32:51;;;;;;;;;;;;;;;;;;5013597;28;19963;-81
2023/04/28 06:35:17;;;;;;;;;;;;;;;;;;5011987;28;19945;-80
2023/04/28 06:37:42;;;;;;;;;;;;;;;;;;5013745;28;19928;-81
2023/04/28 06:40:07;;;;;;;;;;;;;;;;;;5013079;28;19925;-79
2023/04/28 06:42:33;;;;;;;;;;;;;;;;;;5013408;28;19948;-80
2023/04/28 06:44:58;;;;;;;;;;;;;;;;;;5012400;28;20000;-80
2023/04/28 06:47:23;;;;;;;;;;;;;;;;;;4997947;28;19988;-79
2023/04/28 06:49:49;;;;;;;;;;;;;;;;;;4998041;28;19961;-80
2023/04/28 06:52:14;;;;;;;;;;;;;;;;;;5003089;28;19925;-79
2023/04/28 06:54:39;;;;;;;;;;;;;;;;;;5004079;28;19932;-80
2023/04/28 06:57:05;;;;;;;;;;;;;;;;;;5004231;28;19921;-79
2023/04/28 06:59:31;;;;;;;;;;;;;;;;;;5010715;28;19925;-79
2023/04/28 07:01:56;;;;;;;;;;;;;;;;;;5031898;28;19925;-79
2023/04/28 07:04:21;;;;;;;;;;;;;;;;;;5024960;28;19928;-78
2023/04/28 07:06:47;;;;;;;;;;;;;;;;;;5025429;28;20393;-78
2023/04/28 07:09:12;;;;;;;;;;;;;;;;;;5025133;28;19944;-78
2023/04/28 07:11:37;;;;;;;;;;;;;;;;;;5025179;28;20274;-79
2023/04/28 07:14:02;;;;;;;;;;;;;;;;;;5025607;28;19925;-78
2023/04/28 07:16:28;;;;;;;;;;;;;;;;;;5017591;28;20008;-79
2023/04/28 07:18:53;;;;;;;;;;;;;;;;;;5025296;28;20401;-79
2023/04/28 07:21:20;;;;;;;;;;;;;;;;;;5024988;28;19952;-78
2023/04/28 07:23:48;;;;;;;;;;;;;;;;;;5003630;28;20331;-80
2023/04/28 07:26:15;;;;;;;;;;;;;;;;;;5017831;28;19921;-78
2023/04/28 07:28:40;;;;;;;;;;;;;;;;;;5023631;28;19921;-79
2023/04/28 07:31:05;;;;;;;;;;;;;;;;;;5018874;28;19921;-78
2023/04/28 07:33:31;;;;;;;;;;;;;;;;;;5014107;28;19921;-79
2023/04/28 07:35:56;;;;;;;;;;;;;;;;;;5024085;28;19921;-80
2023/04/28 07:38:21;;;;;;;;;;;;;;;;;;5030555;28;19925;-79
2023/04/28 07:40:47;;;;;;;;;;;;;;;;;;5039799;28;19956;-79
2023/04/28 07:43:12;;;;;;;;;;;;;;;;;;5029695;28;19920;-79
2023/04/28 07:45:38;;;;;;;;;;;;;;;;;;5030610;28;19947;-79
2023/04/28 07:48:04;;;;;;;;;;;;;;;;;;5016979;28;19932;-82
2023/04/28 07:50:29;;;;;;;;;;;;;;;;;;5031587;28;19941;-79
2023/04/28 07:52:54;;;;;;;;;;;;;;;;;;5019276;28;20367;-80
2023/04/28 07:55:20;;;;;;;;;;;;;;;;;;5028074;28;19932;-79
2023/04/28 07:57:45;;;;;;;;;;;;;;;;;;5013537;28;19931;-80
2023/04/28 08:00:11;;;;;;;;;;;;;;;;;;5026812;28;20407;-79
2023/04/28 08:02:36;;;;;;;;;;;;;;;;;;5027044;28;19924;-81
2023/04/28 08:05:01;;;;;;;;;;;;;;;;;;5025096;28;19952;-79
2023/04/28 08:07:27;;;;;;;;;;;;;;;;;;5028568;28;19921;-79
2023/04/28 08:09:54;;;;;;;;;;;;;;;;;;5025117;28;19921;-79
2023/04/28 08:12:19;;;;;;;;;;;;;;;;;;5026537;28;20447;-79
2023/04/28 08:14:44;;;;;;;;;;;;;;;;;;5034280;28;19924;-80
2023/04/28 08:17:10;;;;;;;;;;;;;;;;;;5024311;28;20522;-80
2023/04/28 08:19:35;;;;;;;;;;;;;;;;;;5015879;28;20726;-79
2023/04/28 08:22:04;;;;;;;;;;;;;;;;;;5020006;28;19930;-79
2023/04/28 08:24:33;;;;;;;;;;;;;;;;;;5024012;28;19962;-79
2023/04/28 08:26:59;;;;;;;;;;;;;;;;;;5024584;28;19952;-78
2023/04/28 08:29:24;;;;;;;;;;;;;;;;;;5020412;28;19929;-77
2023/04/28 08:31:50;;;;;;;;;;;;;;;;;;5021056;28;19925;-78
2023/04/28 08:34:15;;;;;;;;;;;;;;;;;;5024005;28;19925;-78
2023/04/28 08:36:41;;;;;;;;;;;;;;;;;;5026726;28;19925;-77
2023/04/28 08:39:07;;;;;;;;;;;;;;;;;;5022635;28;19929;-78
2023/04/28 08:41:36;;;;;;;;;;;;;;;;;;5022343;28;20004;-82
2023/04/28 08:44:05;;;;;;;;;;;;;;;;;;5023105;28;19921;-79
2023/04/28 08:46:31;;;;;;;;;;;;;;;;;;5023124;28;19951;-79
2023/04/28 08:48:58;;;;;;;;;;;;;;;;;;5010356;28;19925;-79
2023/04/28 08:51:35;;;;;;;;;;;;;;;;;;5023271;28;19967;-78
2023/04/28 08:54:03;;;;;;;;;;;;;;;;;;5034529;28;19921;-78
2023/04/28 08:56:30;;;;;;;;;;;;;;;;;;5023713;28;19921;-79
2023/04/28 08:58:56;;;;;;;;;;;;;;;;;;5018105;28;19975;-79
2023/04/28 09:01:22;;;;;;;;;;;;;;;;;;5023467;28;19952;-78
2023/04/28 09:03:48;;;;;;;;;;;;;;;;;;5033544;28;20024;-78
2023/04/28 09:06:13;;;;;;;;;;;;;;;;;;5025072;28;19932;-78
2023/04/28 09:08:38;;;;;;;;;;;;;;;;;;5024316;28;19921;-79
2023/04/28 09:11:11;;;;;;;;;;;;;;;;;;5029517;28;19928;-78
2023/04/28 09:13:36;;;;;;;;;;;;;;;;;;5021879;28;19928;-78
2023/04/28 09:16:02;;;;;;;;;;;;;;;;;;5025248;28;19921;-78
2023/04/28 09:18:28;;;;;;;;;;;;;;;;;;5031532;28;19924;-78
2023/04/28 09:21:01;;;;;;;;;;;;;;;;;;5022049;28;20456;-78
2023/04/28 09:23:26;;;;;;;;;;;;;;;;;;5041653;28;19928;-77
2023/04/28 09:26:01;;;;;;;;;;;;;;;;;;5040610;28;19925;-79
2023/04/28 09:28:27;;;;;;;;;;;;;;;;;;5036720;28;19947;-77
2023/04/28 09:30:52;;;;;;;;;;;;;;;;;;5034470;28;20405;-76
2023/04/28 09:33:18;;;;;;;;;;;;;;;;;;5033789;28;20464;-77
2023/04/28 09:35:47;;;;;;;;;;;;;;;;;;5028895;28;19925;-77
2023/04/28 09:38:12;;;;;;;;;;;;;;;;;;5029343;28;20019;-78
2023/04/28 09:40:50;;;;;;;;;;;;;;;;;;5034724;28;19924;-77
2023/04/28 09:43:22;;;;;;;;;;;;;;;;;;5038817;28;19994;-76
2023/04/28 09:45:48;;;;;;;;;;;;;;;;;;5040217;28;19983;-79
2023/04/28 09:48:13;;;;;;;;;;;;;;;;;;5024272;28;19925;-78
2023/04/28 09:50:39;;;;;;;;;;;;;;;;;;5026591;28;19921;-79
2023/04/28 09:53:05;;;;;;;;;;;;;;;;;;5026027;28;19928;-79
2023/04/28 09:55:31;;;;;;;;;;;;;;;;;;5026835;28;19925;-80
2023/04/28 09:57:59;;;;;;;;;;;;;;;;;;5027051;28;20007;-79
2023/04/28 10:00:25;;;;;;;;;;;;;;;;;;5026288;28;20067;-78
2023/04/28 10:02:51;;;;;;;;;;;;;;;;;;5026972;28;20015;-78
2023/04/28 10:05:16;;;;;;;;;;;;;;;;;;5011046;28;20006;-79
2023/04/28 10:07:41;;;;;;;;;;;;;;;;;;5005883;28;19980;-79
2023/04/28 10:10:07;;;;;;;;;;;;;;;;;;5005390;28;19944;-79
2023/04/28 10:12:32;;;;;;;;;;;;;;;;;;5008566;28;19936;-79
2023/04/28 10:14:58;;;;;;;;;;;;;;;;;;5005468;28;20386;-79
2023/04/28 10:17:24;;;;;;;;;;;;;;;;;;5005045;28;19929;-80
2023/04/28 10:19:51;;;;;;;;;;;;;;;;;;5005111;28;19921;-81
2023/04/28 10:22:32;;;;;;;;;;;;;;;;;;5004685;28;19921;-81
2023/04/28 10:25:10;;;;;;;;;;;;;;;;;;5015091;28;19929;-80
2023/04/28 10:27:37;;;;;;;;;;;;;;;;;;5029559;28;19923;-80
2023/04/28 10:30:11;;;;;;;;;;;;;;;;;;5032792;28;20424;-80
2023/04/28 10:32:36;;;;;;;;;;;;;;;;;;5028596;28;20399;-79
2023/04/28 10:35:20;;;;;;;;;;;;;;;;;;5025023;28;19925;-79
2023/04/28 10:38:05;;;;;;;;;;;;;;;;;;5024601;28;19925;-79
2023/04/28 10:40:34;;;;;;;;;;;;;;;;;;5024641;28;20360;-79
2023/04/28 10:43:00;;;;;;;;;;;;;;;;;;5025192;28;20293;-80
2023/04/28 10:45:44;;;;;;;;;;;;;;;;;;5008942;28;19921;-78
2023/04/28 10:48:09;;;;;;;;;;;;;;;;;;5010087;28;20697;-79
2023/04/28 10:50:36;;;;;;;;;;;;;;;;;;5025989;28;19924;-80
2023/04/28 10:53:02;;;;;;;;;;;;;;;;;;5025647;28;19929;-78
2023/04/28 10:55:36;;;;;;;;;;;;;;;;;;5028822;28;19925;-80
2023/04/28 10:58:19;;;;;;;;;;;;;;;;;;5007612;28;19925;-81
2023/04/28 11:00:49;;;;;;;;;;;;;;;;;;5008054;28;19925;-79
2023/04/28 11:03:33;;;;;;;;;;;;;;;;;;5004272;28;19925;-80
2023/04/28 11:06:18;;;;;;;;;;;;;;;;;;5004227;28;20010;-81
2023/04/28 11:08:43;;;;;;;;;;;;;;;;;;5008383;28;19930;-80
2023/04/28 11:11:14;;;;;;;;;;;;;;;;;;5007710;28;20633;-80
2023/04/28 11:13:40;;;;;;;;;;;;;;;;;;5006458;28;19929;-81
2023/04/28 11:16:06;;;;;;;;;;;;;;;;;;5004016;28;19936;-80
2023/04/28 11:18:48;;;;;;;;;;;;;;;;;;5004258;28;19964;-81
2023/04/28 11:21:13;;;;;;;;;;;;;;;;;;5003563;28;19925;-81
2023/04/28 11:23:38;;;;;;;;;;;;;;;;;;5004928;28;19928;-81
2023/04/28 11:26:04;;;;;;;;;;;;;;;;;;5021564;28;19920;-80
2023/04/28 11:28:29;;;;;;;;;;;;;;;;;;5025762;28;19925;-84
2023/04/28 11:31:10;;;;;;;;;;;;;;;;;;5008517;28;20321;-79
2023/04/28 11:33:37;;;;;;;;;;;;;;;;;;5028295;28;20016;-81
2023/04/28 11:36:02;;;;;;;;;;;;;;;;;;5025450;28;19953;-81
2023/04/28 11:38:27;;;;;;;;;;;;;;;;;;5007365;28;20458;-81
2023/04/28 11:40:56;;;;;;;;;;;;;;;;;;5008419;28;19924;-81
2023/04/28 11:43:31;;;;;;;;;;;;;;;;;;5024755;28;20400;-81
2023/04/28 11:45:56;;;;;;;;;;;;;;;;;;5024919;28;19931;-81
2023/04/28 11:48:22;;;;;;;;;;;;;;;;;;5024826;28;19925;-81
2023/04/28 11:50:47;;;;;;;;;;;;;;;;;;5025041;28;20016;-81
2023/04/28 11:53:12;;;;;;;;;;;;;;;;;;5031150;28;19921;-82
2023/04/28 11:55:38;;;;;;;;;;;;;;;;;;5007250;28;19921;-82
2023/04/28 11:58:26;;;;;;;;;;;;;;;;;;5024994;28;19963;-82
2023/04/28 12:01:06;;;;;;;;;;;;;;;;;;5031876;28;19925;-82
2023/04/28 12:03:32;;;;;;;;;;;;;;;;;;5013298;28;19944;-81
2023/04/28 12:05:57;;;;;;;;;;;;;;;;;;5024630;28;20393;-80
2023/04/28 12:08:27;;;;;;;;;;;;;;;;;;5025167;28;20023;-84
2023/04/28 12:11:09;;;;;;;;;;;;;;;;;;5024483;28;19987;-84
2023/04/28 12:13:35;;;;;;;;;;;;;;;;;;5007007;28;19960;-82
2023/04/28 12:16:02;;;;;;;;;;;;;;;;;;5006102;28;19925;-82
2023/04/28 12:18:28;;;;;;;;;;;;;;;;;;5002486;28;19930;-83
2023/04/28 12:20:53;;;;;;;;;;;;;;;;;;5004130;28;20317;-82
2023/04/28 12:23:28;;;;;;;;;;;;;;;;;;5011941;28;19932;-82
2023/04/28 12:25:54;;;;;;;;;;;;;;;;;;5024105;28;19925;-81
2023/04/28 12:28:19;;;;;;;;;;;;;;;;;;5006040;28;19940;-82
2023/04/28 12:30:44;;;;;;;;;;;;;;;;;;5006360;28;19928;-81
2023/04/28 12:33:22;;;;;;;;;;;;;;;;;;5023832;28;19929;-82
2023/04/28 12:35:48;;;;;;;;;;;;;;;;;;5018860;28;19929;-82
2023/04/28 12:38:14;;;;;;;;;;;;;;;;;;5018576;28;20321;-81
2023/04/28 12:40:40;;;;;;;;;;;;;;;;;;5008559;28;19934;-82
2023/04/28 12:43:05;;;;;;;;;;;;;;;;;;5007259;28;19940;-81
2023/04/28 12:45:31;;;;;;;;;;;;;;;;;;5006584;28;19951;-84
2023/04/28 12:47:56;;;;;;;;;;;;;;;;;;5014609;28;20015;-81
2023/04/28 12:50:23;;;;;;;;;;;;;;;;;;5018712;28;19925;-81
2023/04/28 12:52:48;;;;;;;;;;;;;;;;;;5024404;28;19929;-83
2023/04/28 12:55:13;;;;;;;;;;;;;;;;;;5022020;28;20250;-83
2023/04/28 12:57:39;;;;;;;;;;;;;;;;;;5035243;28;19945;-83
2023/04/28 13:00:05;;;;;;;;;;;;;;;;;;5028984;28;19983;-84
2023/04/28 13:02:30;;;;;;;;;;;;;;;;;;5029177;28;19925;-83
2023/04/28 13:04:55;;;;;;;;;;;;;;;;;;5039019;28;19974;-85
2023/04/28 13:07:21;;;;;;;;;;;;;;;;;;5027991;28;20047;-85
2023/04/28 13:09:46;;;;;;;;;;;;;;;;;;5026936;28;19929;-85
2023/04/28 13:12:12;;;;;;;;;;;;;;;;;;5018843;28;20673;-86
2023/04/28 13:14:37;;;;;;;;;;;;;;;;;;5031649;28;19932;-85
2023/04/28 13:17:03;;;;;;;;;;;;;;;;;;5027892;28;19917;-86
2023/04/28 13:19:29;;;;;;;;;;;;;;;;;;5027701;28;19971;-84
2023/04/28 13:21:54;;;;;;;;;;;;;;;;;;5027820;28;19921;-84
2023/04/28 13:24:20;;;;;;;;;;;;;;;;;;5027148;28;20722;-86
2023/04/28 13:26:45;;;;;;;;;;;;;;;;;;5027532;28;19925;-87
2023/04/28 13:29:11;;;;;;;;;;;;;;;;;;5027307;28;20309;-85
2023/04/28 13:31:36;;;;;;;;;;;;;;;;;;5039045;28;19993;-84
2023/04/28 13:34:04;;;;;;;;;;;;;;;;;;5028018;28;19936;-84
2023/04/28 13:36:29;;;;;;;;;;;;;;;;;;5009523;28;19921;-85
2023/04/28 13:38:55;;;;;;;;;;;;;;;;;;5027857;28;20025;-84
2023/04/28 13:41:20;;;;;;;;;;;;;;;;;;5026866;28;19921;-83
2023/04/28 13:43:46;;;;;;;;;;;;;;;;;;5027513;28;19992;-83
2023/04/28 13:46:11;;;;;;;;;;;;;;;;;;5027001;28;19925;-83
2023/04/28 13:48:36;;;;;;;;;;;;;;;;;;5034818;28;19917;-85
2023/04/28 13:51:03;;;;;;;;;;;;;;;;;;5032155;28;19928;-86
2023/04/28 13:53:28;;;;;;;;;;;;;;;;;;5033368;28;19943;-85
2023/04/28 13:55:56;;;;;;;;;;;;;;;;;;5029499;28;19954;-88
2023/04/28 13:58:24;;;;;;;;;;;;;;;;;;5028653;28;19920;-85
2023/04/28 14:00:51;;;;;;;;;;;;;;;;;;5039810;28;19924;-88
2023/04/28 14:03:16;;;;;;;;;;;;;;;;;;5042840;28;19925;-88
2023/04/28 14:05:43;;;;;;;;;;;;;;;;;;5029089;28;19921;-85
2023/04/28 14:08:09;;;;;;;;;;;;;;;;;;5031472;28;20459;-85
2023/04/28 14:10:34;;;;;;;;;;;;;;;;;;5015839;28;19921;-84
2023/04/28 14:12:59;;;;;;;;;;;;;;;;;;5033710;28;20000;-86
2023/04/28 14:15:25;;;;;;;;;;;;;;;;;;5032309;28;19928;-84
2023/04/28 14:17:50;;;;;;;;;;;;;;;;;;5033639;28;19925;-86
2023/04/28 14:20:16;;;;;;;;;;;;;;;;;;5036939;28;19920;-85
2023/04/28 14:22:42;;;;;;;;;;;;;;;;;;5041729;28;19921;-86
2023/04/28 14:25:07;;;;;;;;;;;;;;;;;;5033327;28;19943;-84
2023/04/28 14:27:33;;;;;;;;;;;;;;;;;;5035160;28;19980;-89
2023/04/28 14:29:59;;;;;;;;;;;;;;;;;;5027376;28;19925;-86
2023/04/28 14:32:24;;;;;;;;;;;;;;;;;;5026816;28;19952;-85
2023/04/28 14:34:50;;;;;;;;;;;;;;;;;;5021915;28;20396;-86
2023/04/28 14:37:16;;;;;;;;;;;;;;;;;;5023011;28;19936;-84
2023/04/28 14:39:42;;;;;;;;;;;;;;;;;;5026268;28;20388;-83
2023/04/28 14:42:07;;;;;;;;;;;;;;;;;;5021450;28;20011;-85
2023/04/28 14:44:33;;;;;;;;;;;;;;;;;;5018889;28;20056;-84
2023/04/28 14:46:58;;;;;;;;;;;;;;;;;;5031661;28;19921;-84
2023/04/28 14:49:25;;;;;;;;;;;;;;;;;;5015877;28;19929;-85
2023/04/28 14:51:51;;;;;;;;;;;;;;;;;;5032735;28;20351;-87
2023/04/28 14:54:16;;;;;;;;;;;;;;;;;;5032737;28;19921;-85
2023/04/28 14:56:41;;;;;;;;;;;;;;;;;;5033665;28;19921;-87
2023/04/28 14:59:09;;;;;;;;;;;;;;;;;;5033193;28;20452;-85
2023/04/28 15:01:34;;;;;;;;;;;;;;;;;;5033069;28;19921;-85
2023/04/28 15:03:59;;;;;;;;;;;;;;;;;;5031717;28;19928;-83
2023/04/28 15:06:25;;;;;;;;;;;;;;;;;;5030957;28;20285;-83
2023/04/28 15:08:51;;;;;;;;;;;;;;;;;;5032597;28;20022;-85
2023/04/28 15:11:16;;;;;;;;;;;;;;;;;;5045673;28;20293;-86
2023/04/28 15:13:41;;;;;;;;;;;;;;;;;;5038664;28;19948;-85
2023/04/28 15:16:07;;;;;;;;;;;;;;;;;;5029873;28;19929;-84
2023/04/28 15:18:33;;;;;;;;;;;;;;;;;;5040825;28;20447;-85
2023/04/28 15:20:59;;;;;;;;;;;;;;;;;;5031810;28;19936;-84
2023/04/28 15:23:25;;;;;;;;;;;;;;;;;;5032138;28;20328;-85
2023/04/28 15:25:52;;;;;;;;;;;;;;;;;;5031443;28;19928;-88
2023/04/28 15:28:17;;;;;;;;;;;;;;;;;;5032534;28;19920;-85
2023/04/28 15:30:42;;;;;;;;;;;;;;;;;;5039716;28;20016;-87
2023/04/28 15:33:08;;;;;;;;;;;;;;;;;;5026490;28;19921;-87
2023/04/28 15:35:33;;;;;;;;;;;;;;;;;;5034198;28;19971;-88
2023/04/28 15:37:59;;;;;;;;;;;;;;;;;;5033644;28;20316;-87
2023/04/28 15:40:24;;;;;;;;;;;;;;;;;;5048540;28;19929;-86
2023/04/28 15:42:51;;;;;;;;;;;;;;;;;;5050085;28;19997;-87
2023/04/28 15:45:18;;;;;;;;;;;;;;;;;;5045169;28;19928;-89
2023/04/28 15:47:45;;;;;;;;;;;;;;;;;;5041881;28;19967;-90
2023/04/28 15:50:11;;;;;;;;;;;;;;;;;;5037493;28;19917;-88
2023/04/28 15:52:37;;;;;;;;;;;;;;;;;;5032547;28;19928;-89
2023/04/28 15:55:02;;;;;;;;;;;;;;;;;;5033143;28;20393;-89
2023/04/28 15:57:28;;;;;;;;;;;;;;;;;;5019052;28;20385;-89
2023/04/28 15:59:53;;;;;;;;;;;;;;;;;;5013857;28;19928;-90
2023/04/28 16:02:20;;;;;;;;;;;;;;;;;;4994335;28;19928;-89
2023/04/28 16:04:46;;;;;;;;;;;;;;;;;;5008313;28;20016;-88
2023/04/28 16:07:11;;;;;;;;;;;;;;;;;;4996261;28;20050;-88
2023/04/28 16:09:36;;;;;;;;;;;;;;;;;;5037079;28;19921;-88
2023/04/28 16:12:03;;;;;;;;;;;;;;;;;;5029614;28;20722;-89
2023/04/28 16:14:28;;;;;;;;;;;;;;;;;;5034969;28;21296;-90
2023/04/28 16:16:53;;;;;;;;;;;;;;;;;;5035153;28;19970;-89
2023/04/28 16:19:20;;;;;;;;;;;;;;;;;;5041762;28;19920;-89
2023/04/28 16:21:45;;;;;;;;;;;;;;;;;;5022729;28;19925;-89
2023/04/28 16:24:11;;;;;;;;;;;;;;;;;;5010494;28;19928;-87
2023/04/28 16:26:36;;;;;;;;;;;;;;;;;;5027903;28;20432;-87
2023/04/28 16:29:02;;;;;;;;;;;;;;;;;;5031308;28;19925;-87
2023/04/28 16:31:27;;;;;;;;;;;;;;;;;;5025110;28;19925;-91
2023/04/28 16:33:52;;;;;;;;;;;;;;;;;;5030669;28;19925;-88
2023/04/28 16:36:18;;;;;;;;;;;;;;;;;;5024526;28;19921;-89
2023/04/28 16:38:44;;;;;;;;;;;;;;;;;;5019414;28;19972;-89
2023/04/28 16:41:10;;;;;;;;;;;;;;;;;;5033435;28;19925;-90
2023/04/28 16:43:37;;;;;;;;;;;;;;;;;;5014562;28;19929;-89
2023/04/28 16:46:03;;;;;;;;;;;;;;;;;;5028576;28;20003;-89
2023/04/28 16:48:28;;;;;;;;;;;;;;;;;;5033192;28;19929;-87
2023/04/28 16:50:53;;;;;;;;;;;;;;;;;;5033574;28;19928;-88
2023/04/28 16:53:18;;;;;;;;;;;;;;;;;;5019868;28;20452;-90
2023/04/28 16:55:44;;;;;;;;;;;;;;;;;;5041804;28;20066;-89
2023/04/28 16:58:10;;;;;;;;;;;;;;;;;;5032107;28;19933;-90
2023/04/28 17:00:35;;;;;;;;;;;;;;;;;;5039688;28;20300;-90
2023/04/28 17:03:00;;;;;;;;;;;;;;;;;;5036876;28;19952;-85
2023/04/28 17:05:26;;;;;;;;;;;;;;;;;;5037654;28;19971;-90
2023/04/28 17:07:53;;;;;;;;;;;;;;;;;;5039779;28;20102;-91
2023/04/28 17:10:19;;;;;;;;;;;;;;;;;;5035321;28;19921;-89
2023/04/28 17:12:44;;;;;;;;;;;;;;;;;;5009498;28;19936;-90
2023/04/28 17:15:12;;;;;;;;;;;;;;;;;;5009018;28;20459;-87
2023/04/28 17:18:09;;;;;;;;;;;;;;;;;;5011360;28;19927;-88
2023/04/28 17:20:34;;;;;;;;;;;;;;;;;;5026627;28;19952;-86
2023/04/28 17:22:59;;;;;;;;;;;;;;;;;;5009329;28;20006;-88
2023/04/28 17:25:25;;;;;;;;;;;;;;;;;;5011400;28;19928;-86
2023/04/28 17:27:50;;;;;;;;;;;;;;;;;;5018816;28;20481;-88
2023/04/28 17:30:15;;;;;;;;;;;;;;;;;;4999782;28;20428;-89
2023/04/28 17:32:41;;;;;;;;;;;;;;;;;;5003521;28;20024;-87
2023/04/28 17:35:07;;;;;;;;;;;;;;;;;;5029932;28;19968;-87
2023/04/28 17:37:33;;;;;;;;;;;;;;;;;;5012854;28;20301;-87
2023/04/28 17:39:59;;;;;;;;;;;;;;;;;;5015462;28;20019;-88
2023/04/28 17:42:26;;;;;;;;;;;;;;;;;;5016845;28;19921;-85
2023/04/28 17:44:51;;;;;;;;;;;;;;;;;;5046275;28;19932;-86
2023/04/28 17:47:17;;;;;;;;;;;;;;;;;;5034800;28;19928;-86
2023/04/28 17:49:42;;;;;;;;;;;;;;;;;;5034235;28;19921;-88
2023/04/28 17:52:07;;;;;;;;;;;;;;;;;;5043881;28;19979;-87
2023/04/28 17:54:32;;;;;;;;;;;;;;;;;;5040933;28;20011;-88
2023/04/28 17:56:58;;;;;;;;;;;;;;;;;;5036444;28;19921;-88
2023/04/28 17:59:23;;;;;;;;;;;;;;;;;;5030521;28;19925;-91
2023/04/28 18:01:48;;;;;;;;;;;;;;;;;;5026853;28;20024;-88
2023/04/28 18:04:14;;;;;;;;;;;;;;;;;;5023254;28;20378;-90
2023/04/28 18:06:39;;;;;;;;;;;;;;;;;;5034080;28;19928;-83
2023/04/28 18:09:04;;;;;;;;;;;;;;;;;;5044189;28;20393;-90
2023/04/28 18:11:30;;;;;;;;;;;;;;;;;;5039103;28;19924;-88
2023/04/28 18:13:57;;;;;;;;;;;;;;;;;;5042350;28;20019;-92
2023/04/28 18:16:22;;;;;;;;;;;;;;;;;;5047070;28;20381;-91
2023/04/28 18:18:48;;;;;;;;;;;;;;;;;;5020376;28;19927;-83
2023/04/28 18:21:13;;;;;;;;;;;;;;;;;;5021452;28;20324;-85
2023/04/28 18:23:39;;;;;;;;;;;;;;;;;;5035725;28;20380;-88
2023/04/28 18:26:04;;;;;;;;;;;;;;;;;;5050039;28;20019;-87
2023/04/28 18:28:32;;;;;;;;;;;;;;;;;;5048088;28;20011;-90
2023/04/28 18:36:03;;;;;;;;;;;;;;;;;;5032536;28;19921;-86
2023/04/28 18:38:30;;;;;;;;;;;;;;;;;;5043981;28;19920;-89
2023/04/28 18:41:15;;;;;;;;;;;;;;;;;;5040540;28;19921;-89
2023/04/28 18:43:40;;;;;;;;;;;;;;;;;;5039722;28;19928;-85
2023/04/28 18:46:09;;;;;;;;;;;;;;;;;;5034273;28;19921;-89
2023/04/28 18:48:37;;;;;;;;;;;;;;;;;;5027866;28;19982;-88
2023/04/28 18:51:04;;;;;;;;;;;;;;;;;;5042218;28;19928;-89
2023/04/28 18:53:31;;;;;;;;;;;;;;;;;;5037813;28;20296;-88
2023/04/28 18:55:57;;;;;;;;;;;;;;;;;;5044818;28;20381;-90
2023/04/28 18:58:23;;;;;;;;;;;;;;;;;;5049969;28;19936;-87
2023/04/28 19:00:48;;;;;;;;;;;;;;;;;;5043551;28;19950;-88
2023/04/28 19:03:20;;;;;;;;;;;;;;;;;;5045022;28;19921;-89
2023/04/28 19:05:45;;;;;;;;;;;;;;;;;;5036008;28;19921;-90
2023/04/28 19:08:13;;;;;;;;;;;;;;;;;;5037294;28;20027;-90
2023/04/28 19:10:40;;;;;;;;;;;;;;;;;;5053401;28;20006;-89
2023/04/28 19:13:08;;;;;;;;;;;;;;;;;;5035682;28;19943;-89
2023/04/28 19:15:40;;;;;;;;;;;;;;;;;;5028399;28;19929;-91
2023/04/28 19:18:33;;;;;;;;;;;;;;;;;;5032881;28;20562;-89
2023/04/28 19:21:02;;;;;;;;;;;;;;;;;;5132723;22;20023;-86
2023/04/28 19:23:31;;;;;;;;;;;;;;;;;;5010527;28;19921;-87
2023/04/28 19:25:57;;;;;;;;;;;;;;;;;;5001134;28;19921;-90
2023/04/28 19:28:24;;;;;;;;;;;;;;;;;;4994506;28;20011;-87
2023/04/28 19:34:06;;;;;;;;;;;;;;;;;;4991651;28;19944;-91
2023/04/28 19:36:34;;;;;;;;;;;;;;;;;;4996145;28;19929;-88
2023/04/28 19:39:00;;;;;;;;;;;;;;;;;;4994197;28;19922;-85
2023/04/28 19:41:26;;;;;;;;;;;;;;;;;;4975698;28;19925;-87
2023/04/28 19:43:52;;;;;;;;;;;;;;;;;;4993092;28;19949;-89
2023/04/28 19:46:30;;;;;;;;;;;;;;;;;;4993241;28;20385;-88
2023/04/28 19:48:59;;;;;;;;;;;;;;;;;;4992743;28;19922;-90
2023/04/28 19:51:27;;;;;;;;;;;;;;;;;;4992474;28;20032;-88
2023/04/28 19:53:55;;;;;;;;;;;;;;;;;;4992545;28;19955;-88
2023/04/28 19:56:21;;;;;;;;;;;;;;;;;;4992962;28;19944;-89
2023/04/28 19:58:46;;;;;;;;;;;;;;;;;;4993048;28;20386;-87
2023/04/28 20:01:11;;;;;;;;;;;;;;;;;;4992523;28;20299;-88
2023/04/28 20:03:36;;;;;;;;;;;;;;;;;;4975441;28;19928;-88
2023/04/28 20:06:02;;;;;;;;;;;;;;;;;;4991825;28;19932;-88
2023/04/28 20:08:28;;;;;;;;;;;;;;;;;;4992789;28;19921;-87
2023/04/28 20:10:53;;;;;;;;;;;;;;;;;;4992811;28;20382;-87
2023/04/28 20:13:19;;;;;;;;;;;;;;;;;;4992111;28;20007;-87
2023/04/28 20:15:44;;;;;;;;;;;;;;;;;;4992181;28;20302;-88
2023/04/28 20:18:09;;;;;;;;;;;;;;;;;;4974588;28;19918;-87
2023/04/28 20:20:38;;;;;;;;;;;;;;;;;;4975017;28;19972;-86
2023/04/28 20:23:05;;;;;;;;;;;;;;;;;;4992192;28;20497;-86
2023/04/28 20:25:40;;;;;;;;;;;;;;;;;;4992194;28;19921;-89
2023/04/28 20:28:14;;;;;;;;;;;;;;;;;;4990678;28;20361;-89
2023/04/28 20:30:40;;;;;;;;;;;;;;;;;;4981266;28;19922;-88
2023/04/28 20:33:06;;;;;;;;;;;;;;;;;;4996989;28;20293;-88
2023/04/28 20:35:37;;;;;;;;;;;;;;;;;;5000190;28;19927;-88
2023/04/28 20:38:03;;;;;;;;;;;;;;;;;;4990879;28;19932;-89
2023/04/28 20:40:28;;;;;;;;;;;;;;;;;;4984930;28;19922;-88
2023/04/28 20:42:57;;;;;;;;;;;;;;;;;;4993997;28;19928;-89
2023/04/28 20:45:22;;;;;;;;;;;;;;;;;;4993495;28;19925;-88
2023/04/28 20:47:48;;;;;;;;;;;;;;;;;;4988166;28;19960;-88
2023/04/28 20:50:19;;;;;;;;;;;;;;;;;;4973843;28;19922;-89
2023/04/28 20:52:45;;;;;;;;;;;;;;;;;;4992526;28;20284;-88
2023/04/28 20:55:10;;;;;;;;;;;;;;;;;;4991570;28;19928;-88
2023/04/28 20:57:35;;;;;;;;;;;;;;;;;;4992379;28;19921;-89
2023/04/28 21:00:01;;;;;;;;;;;;;;;;;;4992719;28;19976;-88
2023/04/28 21:02:26;;;;;;;;;;;;;;;;;;4991539;28;19922;-89
2023/04/28 21:04:52;;;;;;;;;;;;;;;;;;4992355;28;20241;-88
2023/04/28 21:07:17;;;;;;;;;;;;;;;;;;4981976;28;20390;-89
2023/04/28 21:09:43;;;;;;;;;;;;;;;;;;4997818;28;19967;-87
2023/04/28 21:12:08;;;;;;;;;;;;;;;;;;4964843;28;20063;-88
2023/04/28 21:14:35;;;;;;;;;;;;;;;;;;4992013;28;19983;-89
2023/04/28 21:17:02;;;;;;;;;;;;;;;;;;4978786;28;20066;-89
2023/04/28 21:19:27;;;;;;;;;;;;;;;;;;4986085;28;19921;-87
2023/04/28 21:21:53;;;;;;;;;;;;;;;;;;4994818;28;19926;-87
2023/04/28 21:24:19;;;;;;;;;;;;;;;;;;4984792;28;19996;-87
2023/04/28 21:26:45;;;;;;;;;;;;;;;;;;4994402;28;19928;-86
2023/04/28 21:29:10;;;;;;;;;;;;;;;;;;4993948;28;19925;-88
2023/04/28 21:31:36;;;;;;;;;;;;;;;;;;4994894;28;20390;-86
2023/04/28 21:34:01;;;;;;;;;;;;;;;;;;4995037;28;19944;-87
2023/04/28 21:36:27;;;;;;;;;;;;;;;;;;4994781;28;20313;-85
2023/04/28 21:38:52;;;;;;;;;;;;;;;;;;4995375;28;19925;-86
2023/04/28 21:41:17;;;;;;;;;;;;;;;;;;4993897;28;19921;-86
2023/04/28 21:43:43;;;;;;;;;;;;;;;;;;4993522;28;19922;-86
2023/04/28 21:46:08;;;;;;;;;;;;;;;;;;4993079;28;19922;-86
2023/04/28 21:48:34;;;;;;;;;;;;;;;;;;4994806;28;20004;-88
2023/04/28 21:51:00;;;;;;;;;;;;;;;;;;4995422;28;19944;-88
2023/04/28 21:53:25;;;;;;;;;;;;;;;;;;4994568;28;20370;-88
2023/04/28 21:55:50;;;;;;;;;;;;;;;;;;4993367;28;20326;-87
2023/04/28 21:58:16;;;;;;;;;;;;;;;;;;4993752;28;19921;-88
2023/04/28 22:00:42;;;;;;;;;;;;;;;;;;4994557;28;19922;-87
2023/04/28 22:03:07;;;;;;;;;;;;;;;;;;4994177;28;19922;-87
2023/04/28 22:05:33;;;;;;;;;;;;;;;;;;4994458;28;19928;-87
2023/04/28 22:07:59;;;;;;;;;;;;;;;;;;4993805;28;19922;-84
2023/04/28 22:10:24;;;;;;;;;;;;;;;;;;4993835;28;19922;-87
2023/04/28 22:12:49;;;;;;;;;;;;;;;;;;4992335;28;20412;-88
2023/04/28 22:15:15;;;;;;;;;;;;;;;;;;4992903;28;19947;-87
2023/04/28 22:17:40;;;;;;;;;;;;;;;;;;4994677;28;19997;-87
2023/04/28 22:20:07;;;;;;;;;;;;;;;;;;4994118;28;20421;-87
2023/04/28 22:22:32;;;;;;;;;;;;;;;;;;4993903;28;19983;-88
2023/04/28 22:24:58;;;;;;;;;;;;;;;;;;4993578;28;19922;-87
2023/04/28 22:27:23;;;;;;;;;;;;;;;;;;4994259;28;20337;-88
2023/04/28 22:29:49;;;;;;;;;;;;;;;;;;4994142;28;19977;-88
2023/04/28 22:32:14;;;;;;;;;;;;;;;;;;4993250;28;19966;-86
2023/04/28 22:34:40;;;;;;;;;;;;;;;;;;4992402;28;19929;-87
2023/04/28 22:37:05;;;;;;;;;;;;;;;;;;4992954;28;19921;-87
2023/04/28 22:39:30;;;;;;;;;;;;;;;;;;4993541;28;19925;-88
2023/04/28 22:41:55;;;;;;;;;;;;;;;;;;4995466;28;19929;-89
2023/04/28 22:44:21;;;;;;;;;;;;;;;;;;4996342;28;19924;-90
2023/04/28 22:46:46;;;;;;;;;;;;;;;;;;4998166;28;19928;-91
2023/04/28 22:49:11;;;;;;;;;;;;;;;;;;5005055;28;19922;-90
2023/04/28 22:51:37;;;;;;;;;;;;;;;;;;4999619;28;20302;-88